sensor_id;sensor_type;location;lat;lon;timestamp;P1;durP1;ratioP1;P2;durP2;ratioP2
34805;SDS011;65084;42.196;25.326;2023-12-07T00:02:20;74.32;;;23.15;;
34805;SDS011;65084;42.196;25.326;2023-12-07T00:04:47;68.90;;;23.80;;
34805;SDS011;65084;42.196;25.326;2023-12-07T00:07:14;60.10;;;23.02;;
34805;SDS011;65084;42.196;25.326;2023-12-07T00:09:41;62.67;;;25.27;;
34805;SDS011;65084;42.196;25.326;2023-12-07T00:12:09;55.13;;;23.70;;
34805;SDS011;65084;42.196;25.326;2023-12-07T00:14:37;63.50;;;24.20;;
34805;SDS011;65084;42.196;25.326;2023-12-07T00:17:05;60.42;;;24.27;;
34805;SDS011;65084;42.196;25.326;2023-12-07T00:19:32;64.20;;;27.27;;
34805;SDS011;65084;42.196;25.326;2023-12-07T00:21:59;67.25;;;25.08;;
34805;SDS011;65084;42.196;25.326;2023-12-07T00:24:27;76.07;;;27.17;;
34805;SDS011;65084;42.196;25.326;2023-12-07T00:26:54;74.85;;;25.88;;
34805;SDS011;65084;42.196;25.326;2023-12-07T00:29:22;70.88;;;22.77;;
34805;SDS011;65084;42.196;25.326;2023-12-07T00:31:51;61.90;;;22.42;;
34805;SDS011;65084;42.196;25.326;2023-12-07T00:34:18;52.92;;;22.10;;
34805;SDS011;65084;42.196;25.326;2023-12-07T00:36:46;55.92;;;22.95;;
34805;SDS011;65084;42.196;25.326;2023-12-07T00:39:14;64.68;;;21.20;;
34805;SDS011;65084;42.196;25.326;2023-12-07T00:41:42;58.40;;;23.13;;
34805;SDS011;65084;42.196;25.326;2023-12-07T00:44:09;46.10;;;21.55;;
34805;SDS011;65084;42.196;25.326;2023-12-07T00:46:36;49.28;;;21.40;;
34805;SDS011;65084;42.196;25.326;2023-12-07T00:49:05;55.00;;;22.13;;
34805;SDS011;65084;42.196;25.326;2023-12-07T00:51:32;61.13;;;21.20;;
34805;SDS011;65084;42.196;25.326;2023-12-07T00:54:00;51.10;;;22.67;;
34805;SDS011;65084;42.196;25.326;2023-12-07T00:56:27;59.80;;;21.33;;
34805;SDS011;65084;42.196;25.326;2023-12-07T00:58:54;51.58;;;21.92;;
34805;SDS011;65084;42.196;25.326;2023-12-07T01:01:22;51.13;;;20.48;;
34805;SDS011;65084;42.196;25.326;2023-12-07T01:03:49;47.40;;;20.55;;
34805;SDS011;65084;42.196;25.326;2023-12-07T01:06:18;43.88;;;19.33;;
34805;SDS011;65084;42.196;25.326;2023-12-07T01:08:45;37.55;;;17.55;;
34805;SDS011;65084;42.196;25.326;2023-12-07T01:11:12;32.22;;;16.67;;
34805;SDS011;65084;42.196;25.326;2023-12-07T01:13:40;33.95;;;16.83;;
34805;SDS011;65084;42.196;25.326;2023-12-07T01:16:07;35.47;;;16.90;;
34805;SDS011;65084;42.196;25.326;2023-12-07T01:18:34;30.92;;;17.15;;
34805;SDS011;65084;42.196;25.326;2023-12-07T01:21:02;32.42;;;17.50;;
34805;SDS011;65084;42.196;25.326;2023-12-07T01:23:31;35.75;;;17.73;;
34805;SDS011;65084;42.196;25.326;2023-12-07T01:25:58;39.35;;;19.02;;
34805;SDS011;65084;42.196;25.326;2023-12-07T01:28:27;34.42;;;18.33;;
34805;SDS011;65084;42.196;25.326;2023-12-07T01:30:54;38.72;;;18.92;;
34805;SDS011;65084;42.196;25.326;2023-12-07T01:33:22;41.45;;;18.85;;
34805;SDS011;65084;42.196;25.326;2023-12-07T01:35:49;44.75;;;18.85;;
34805;SDS011;65084;42.196;25.326;2023-12-07T01:38:16;37.75;;;18.77;;
34805;SDS011;65084;42.196;25.326;2023-12-07T01:40:45;46.90;;;19.38;;
34805;SDS011;65084;42.196;25.326;2023-12-07T01:43:13;43.10;;;18.30;;
34805;SDS011;65084;42.196;25.326;2023-12-07T01:45:41;43.25;;;19.30;;
34805;SDS011;65084;42.196;25.326;2023-12-07T01:48:08;39.78;;;19.63;;
34805;SDS011;65084;42.196;25.326;2023-12-07T01:50:36;36.95;;;19.42;;
34805;SDS011;65084;42.196;25.326;2023-12-07T01:53:03;43.03;;;19.45;;
34805;SDS011;65084;42.196;25.326;2023-12-07T01:55:32;34.75;;;18.73;;
34805;SDS011;65084;42.196;25.326;2023-12-07T01:58:01;47.83;;;19.58;;
34805;SDS011;65084;42.196;25.326;2023-12-07T02:00:28;39.22;;;20.23;;
34805;SDS011;65084;42.196;25.326;2023-12-07T02:02:56;39.70;;;19.30;;
34805;SDS011;65084;42.196;25.326;2023-12-07T02:05:23;45.13;;;20.85;;
34805;SDS011;65084;42.196;25.326;2023-12-07T02:07:51;38.63;;;18.40;;
34805;SDS011;65084;42.196;25.326;2023-12-07T02:10:18;41.17;;;19.98;;
34805;SDS011;65084;42.196;25.326;2023-12-07T02:12:46;42.33;;;19.40;;
34805;SDS011;65084;42.196;25.326;2023-12-07T02:15:15;43.95;;;19.88;;
34805;SDS011;65084;42.196;25.326;2023-12-07T02:17:45;48.17;;;21.17;;
34805;SDS011;65084;42.196;25.326;2023-12-07T02:20:17;49.20;;;22.00;;
34805;SDS011;65084;42.196;25.326;2023-12-07T02:22:48;46.60;;;21.25;;
34805;SDS011;65084;42.196;25.326;2023-12-07T02:25:17;53.45;;;19.92;;
34805;SDS011;65084;42.196;25.326;2023-12-07T02:27:46;45.00;;;21.17;;
34805;SDS011;65084;42.196;25.326;2023-12-07T02:30:14;46.25;;;19.27;;
34805;SDS011;65084;42.196;25.326;2023-12-07T02:32:42;43.97;;;18.70;;
34805;SDS011;65084;42.196;25.326;2023-12-07T02:35:10;40.88;;;17.75;;
34805;SDS011;65084;42.196;25.326;2023-12-07T02:37:40;37.53;;;18.25;;
34805;SDS011;65084;42.196;25.326;2023-12-07T02:40:08;38.53;;;18.20;;
34805;SDS011;65084;42.196;25.326;2023-12-07T02:42:36;28.27;;;15.82;;
34805;SDS011;65084;42.196;25.326;2023-12-07T02:45:06;36.90;;;17.33;;
34805;SDS011;65084;42.196;25.326;2023-12-07T02:47:34;32.13;;;17.30;;
34805;SDS011;65084;42.196;25.326;2023-12-07T02:50:02;31.25;;;17.33;;
34805;SDS011;65084;42.196;25.326;2023-12-07T02:52:29;28.42;;;15.43;;
34805;SDS011;65084;42.196;25.326;2023-12-07T02:54:56;29.13;;;16.15;;
34805;SDS011;65084;42.196;25.326;2023-12-07T02:57:23;28.80;;;15.23;;
34805;SDS011;65084;42.196;25.326;2023-12-07T02:59:51;22.73;;;13.55;;
34805;SDS011;65084;42.196;25.326;2023-12-07T03:02:19;23.65;;;13.75;;
34805;SDS011;65084;42.196;25.326;2023-12-07T03:04:47;21.10;;;13.13;;
34805;SDS011;65084;42.196;25.326;2023-12-07T03:07:14;19.83;;;13.07;;
34805;SDS011;65084;42.196;25.326;2023-12-07T03:09:41;20.90;;;12.27;;
34805;SDS011;65084;42.196;25.326;2023-12-07T03:12:09;20.20;;;12.93;;
34805;SDS011;65084;42.196;25.326;2023-12-07T03:14:37;20.73;;;12.10;;
34805;SDS011;65084;42.196;25.326;2023-12-07T03:17:04;17.95;;;12.25;;
34805;SDS011;65084;42.196;25.326;2023-12-07T03:19:33;20.92;;;12.75;;
34805;SDS011;65084;42.196;25.326;2023-12-07T03:22:00;20.42;;;12.30;;
34805;SDS011;65084;42.196;25.326;2023-12-07T03:24:27;18.85;;;11.95;;
34805;SDS011;65084;42.196;25.326;2023-12-07T03:26:55;20.20;;;12.82;;
34805;SDS011;65084;42.196;25.326;2023-12-07T03:29:22;23.42;;;12.20;;
34805;SDS011;65084;42.196;25.326;2023-12-07T03:31:49;25.38;;;15.90;;
34805;SDS011;65084;42.196;25.326;2023-12-07T03:34:16;33.72;;;18.00;;
34805;SDS011;65084;42.196;25.326;2023-12-07T03:36:46;25.05;;;16.30;;
34805;SDS011;65084;42.196;25.326;2023-12-07T03:39:13;27.95;;;15.77;;
34805;SDS011;65084;42.196;25.326;2023-12-07T03:41:41;38.75;;;20.48;;
34805;SDS011;65084;42.196;25.326;2023-12-07T03:44:08;32.50;;;18.50;;
34805;SDS011;65084;42.196;25.326;2023-12-07T03:46:35;26.67;;;16.60;;
34805;SDS011;65084;42.196;25.326;2023-12-07T03:49:03;29.77;;;17.15;;
34805;SDS011;65084;42.196;25.326;2023-12-07T03:51:30;25.95;;;14.75;;
34805;SDS011;65084;42.196;25.326;2023-12-07T03:53:59;21.52;;;13.57;;
34805;SDS011;65084;42.196;25.326;2023-12-07T03:56:26;20.27;;;12.30;;
34805;SDS011;65084;42.196;25.326;2023-12-07T03:58:55;16.80;;;11.10;;
34805;SDS011;65084;42.196;25.326;2023-12-07T04:01:22;17.50;;;11.52;;
34805;SDS011;65084;42.196;25.326;2023-12-07T04:03:50;22.33;;;14.32;;
34805;SDS011;65084;42.196;25.326;2023-12-07T04:06:17;32.05;;;17.98;;
34805;SDS011;65084;42.196;25.326;2023-12-07T04:08:45;26.42;;;16.85;;
34805;SDS011;65084;42.196;25.326;2023-12-07T04:11:14;32.33;;;18.15;;
34805;SDS011;65084;42.196;25.326;2023-12-07T04:13:42;31.40;;;19.10;;
34805;SDS011;65084;42.196;25.326;2023-12-07T04:16:09;32.50;;;19.17;;
34805;SDS011;65084;42.196;25.326;2023-12-07T04:18:37;30.90;;;17.75;;
34805;SDS011;65084;42.196;25.326;2023-12-07T04:21:04;33.05;;;18.60;;
34805;SDS011;65084;42.196;25.326;2023-12-07T04:23:32;25.25;;;15.68;;
34805;SDS011;65084;42.196;25.326;2023-12-07T04:26:00;30.58;;;17.58;;
34805;SDS011;65084;42.196;25.326;2023-12-07T04:28:28;29.20;;;15.75;;
34805;SDS011;65084;42.196;25.326;2023-12-07T04:30:56;27.85;;;14.75;;
34805;SDS011;65084;42.196;25.326;2023-12-07T04:33:23;81.78;;;18.90;;
34805;SDS011;65084;42.196;25.326;2023-12-07T04:35:50;31.33;;;17.48;;
34805;SDS011;65084;42.196;25.326;2023-12-07T04:38:17;29.02;;;16.63;;
34805;SDS011;65084;42.196;25.326;2023-12-07T04:40:45;31.70;;;17.38;;
34805;SDS011;65084;42.196;25.326;2023-12-07T04:43:12;40.05;;;20.65;;
34805;SDS011;65084;42.196;25.326;2023-12-07T04:45:41;45.38;;;22.63;;
34805;SDS011;65084;42.196;25.326;2023-12-07T04:48:08;45.40;;;22.08;;
34805;SDS011;65084;42.196;25.326;2023-12-07T04:50:35;49.75;;;23.40;;
34805;SDS011;65084;42.196;25.326;2023-12-07T04:53:02;46.00;;;22.88;;
34805;SDS011;65084;42.196;25.326;2023-12-07T04:55:30;51.40;;;22.70;;
34805;SDS011;65084;42.196;25.326;2023-12-07T04:57:57;44.60;;;22.02;;
34805;SDS011;65084;42.196;25.326;2023-12-07T05:00:24;39.92;;;20.20;;
34805;SDS011;65084;42.196;25.326;2023-12-07T05:02:53;35.63;;;18.77;;
34805;SDS011;65084;42.196;25.326;2023-12-07T05:05:21;46.17;;;21.40;;
34805;SDS011;65084;42.196;25.326;2023-12-07T05:07:49;66.97;;;33.88;;
34805;SDS011;65084;42.196;25.326;2023-12-07T05:10:16;49.78;;;24.00;;
34805;SDS011;65084;42.196;25.326;2023-12-07T05:12:44;39.40;;;20.00;;
34805;SDS011;65084;42.196;25.326;2023-12-07T05:15:11;34.42;;;17.38;;
34805;SDS011;65084;42.196;25.326;2023-12-07T05:17:38;27.17;;;16.23;;
34805;SDS011;65084;42.196;25.326;2023-12-07T05:20:07;30.90;;;17.45;;
34805;SDS011;65084;42.196;25.326;2023-12-07T05:22:37;52.78;;;23.38;;
34805;SDS011;65084;42.196;25.326;2023-12-07T05:25:05;38.75;;;19.98;;
34805;SDS011;65084;42.196;25.326;2023-12-07T05:27:33;39.60;;;19.13;;
34805;SDS011;65084;42.196;25.326;2023-12-07T05:30:00;39.40;;;20.92;;
34805;SDS011;65084;42.196;25.326;2023-12-07T05:32:28;47.83;;;21.90;;
34805;SDS011;65084;42.196;25.326;2023-12-07T05:34:55;73.55;;;20.38;;
34805;SDS011;65084;42.196;25.326;2023-12-07T05:37:24;44.53;;;17.60;;
34805;SDS011;65084;42.196;25.326;2023-12-07T05:39:51;29.92;;;15.15;;
34805;SDS011;65084;42.196;25.326;2023-12-07T05:42:18;32.72;;;15.15;;
34805;SDS011;65084;42.196;25.326;2023-12-07T05:44:45;48.08;;;19.45;;
34805;SDS011;65084;42.196;25.326;2023-12-07T05:47:13;33.35;;;18.85;;
34805;SDS011;65084;42.196;25.326;2023-12-07T05:49:40;54.47;;;19.38;;
34805;SDS011;65084;42.196;25.326;2023-12-07T05:52:07;32.08;;;18.30;;
34805;SDS011;65084;42.196;25.326;2023-12-07T05:54:36;38.65;;;19.60;;
34805;SDS011;65084;42.196;25.326;2023-12-07T05:57:04;50.03;;;24.20;;
34805;SDS011;65084;42.196;25.326;2023-12-07T05:59:31;73.22;;;34.22;;
34805;SDS011;65084;42.196;25.326;2023-12-07T06:01:58;66.10;;;32.15;;
34805;SDS011;65084;42.196;25.326;2023-12-07T06:04:25;61.25;;;28.98;;
34805;SDS011;65084;42.196;25.326;2023-12-07T06:06:53;54.58;;;26.35;;
34805;SDS011;65084;42.196;25.326;2023-12-07T06:09:20;39.60;;;21.85;;
34805;SDS011;65084;42.196;25.326;2023-12-07T06:11:49;40.72;;;20.55;;
34805;SDS011;65084;42.196;25.326;2023-12-07T06:14:16;40.35;;;20.73;;
34805;SDS011;65084;42.196;25.326;2023-12-07T06:16:44;39.97;;;22.00;;
34805;SDS011;65084;42.196;25.326;2023-12-07T06:19:11;34.55;;;20.95;;
34805;SDS011;65084;42.196;25.326;2023-12-07T06:21:38;36.00;;;20.75;;
34805;SDS011;65084;42.196;25.326;2023-12-07T06:24:05;33.00;;;19.70;;
34805;SDS011;65084;42.196;25.326;2023-12-07T06:26:33;32.33;;;19.08;;
34805;SDS011;65084;42.196;25.326;2023-12-07T06:29:01;38.88;;;19.15;;
34805;SDS011;65084;42.196;25.326;2023-12-07T06:31:29;36.35;;;19.60;;
34805;SDS011;65084;42.196;25.326;2023-12-07T06:33:56;37.20;;;21.42;;
34805;SDS011;65084;42.196;25.326;2023-12-07T06:36:25;35.63;;;18.77;;
34805;SDS011;65084;42.196;25.326;2023-12-07T06:38:52;32.85;;;17.95;;
34805;SDS011;65084;42.196;25.326;2023-12-07T06:41:21;34.83;;;18.52;;
34805;SDS011;65084;42.196;25.326;2023-12-07T06:43:48;31.60;;;17.75;;
34805;SDS011;65084;42.196;25.326;2023-12-07T06:46:17;31.40;;;16.63;;
34805;SDS011;65084;42.196;25.326;2023-12-07T06:48:44;35.20;;;18.48;;
34805;SDS011;65084;42.196;25.326;2023-12-07T06:51:11;37.40;;;18.85;;
34805;SDS011;65084;42.196;25.326;2023-12-07T06:53:39;29.42;;;17.20;;
34805;SDS011;65084;42.196;25.326;2023-12-07T06:56:07;26.35;;;16.60;;
34805;SDS011;65084;42.196;25.326;2023-12-07T06:58:34;27.75;;;17.83;;
34805;SDS011;65084;42.196;25.326;2023-12-07T07:01:01;26.88;;;17.13;;
34805;SDS011;65084;42.196;25.326;2023-12-07T07:03:30;25.83;;;16.60;;
34805;SDS011;65084;42.196;25.326;2023-12-07T07:05:57;24.48;;;16.02;;
34805;SDS011;65084;42.196;25.326;2023-12-07T07:08:25;27.42;;;16.50;;
34805;SDS011;65084;42.196;25.326;2023-12-07T07:10:52;33.03;;;17.02;;
34805;SDS011;65084;42.196;25.326;2023-12-07T07:13:20;24.80;;;15.40;;
34805;SDS011;65084;42.196;25.326;2023-12-07T07:15:47;24.17;;;14.90;;
34805;SDS011;65084;42.196;25.326;2023-12-07T07:18:14;25.00;;;14.32;;
34805;SDS011;65084;42.196;25.326;2023-12-07T07:20:43;17.05;;;11.68;;
34805;SDS011;65084;42.196;25.326;2023-12-07T07:23:12;22.52;;;13.20;;
34805;SDS011;65084;42.196;25.326;2023-12-07T07:25:39;19.50;;;12.07;;
34805;SDS011;65084;42.196;25.326;2023-12-07T07:28:06;25.23;;;16.50;;
34805;SDS011;65084;42.196;25.326;2023-12-07T07:30:34;32.45;;;19.70;;
34805;SDS011;65084;42.196;25.326;2023-12-07T07:33:01;38.40;;;26.10;;
34805;SDS011;65084;42.196;25.326;2023-12-07T07:35:29;65.28;;;43.83;;
34805;SDS011;65084;42.196;25.326;2023-12-07T07:37:57;66.05;;;45.70;;
34805;SDS011;65084;42.196;25.326;2023-12-07T07:40:25;85.22;;;59.35;;
34805;SDS011;65084;42.196;25.326;2023-12-07T07:42:52;79.97;;;55.67;;
34805;SDS011;65084;42.196;25.326;2023-12-07T07:45:19;72.32;;;49.47;;
34805;SDS011;65084;42.196;25.326;2023-12-07T07:47:47;59.20;;;42.28;;
34805;SDS011;65084;42.196;25.326;2023-12-07T07:50:14;57.50;;;41.33;;
34805;SDS011;65084;42.196;25.326;2023-12-07T07:52:42;59.75;;;38.35;;
34805;SDS011;65084;42.196;25.326;2023-12-07T07:55:11;59.35;;;38.90;;
34805;SDS011;65084;42.196;25.326;2023-12-07T07:57:38;55.92;;;37.15;;
34805;SDS011;65084;42.196;25.326;2023-12-07T08:00:06;56.47;;;35.17;;
34805;SDS011;65084;42.196;25.326;2023-12-07T08:02:34;49.95;;;31.98;;
34805;SDS011;65084;42.196;25.326;2023-12-07T08:05:01;33.47;;;22.75;;
34805;SDS011;65084;42.196;25.326;2023-12-07T08:07:28;24.58;;;16.48;;
34805;SDS011;65084;42.196;25.326;2023-12-07T08:09:56;30.70;;;17.00;;
34805;SDS011;65084;42.196;25.326;2023-12-07T08:12:24;28.92;;;16.17;;
34805;SDS011;65084;42.196;25.326;2023-12-07T08:14:52;24.92;;;14.02;;
34805;SDS011;65084;42.196;25.326;2023-12-07T08:17:19;22.80;;;14.25;;
34805;SDS011;65084;42.196;25.326;2023-12-07T08:19:46;25.98;;;16.45;;
34805;SDS011;65084;42.196;25.326;2023-12-07T08:22:13;35.55;;;24.73;;
34805;SDS011;65084;42.196;25.326;2023-12-07T08:24:41;41.65;;;26.00;;
34805;SDS011;65084;42.196;25.326;2023-12-07T08:27:08;47.53;;;30.90;;
34805;SDS011;65084;42.196;25.326;2023-12-07T08:29:37;48.60;;;30.77;;
34805;SDS011;65084;42.196;25.326;2023-12-07T08:32:04;46.17;;;29.45;;
34805;SDS011;65084;42.196;25.326;2023-12-07T08:34:31;33.28;;;20.98;;
34805;SDS011;65084;42.196;25.326;2023-12-07T08:36:59;22.85;;;13.55;;
34805;SDS011;65084;42.196;25.326;2023-12-07T08:39:28;20.80;;;12.57;;
34805;SDS011;65084;42.196;25.326;2023-12-07T08:41:55;18.23;;;11.65;;
34805;SDS011;65084;42.196;25.326;2023-12-07T08:44:22;68.60;;;23.02;;
34805;SDS011;65084;42.196;25.326;2023-12-07T08:46:51;54.42;;;20.02;;
34805;SDS011;65084;42.196;25.326;2023-12-07T08:49:19;64.45;;;21.27;;
34805;SDS011;65084;42.196;25.326;2023-12-07T08:51:46;52.72;;;20.27;;
34805;SDS011;65084;42.196;25.326;2023-12-07T08:54:14;39.22;;;17.23;;
34805;SDS011;65084;42.196;25.326;2023-12-07T08:56:43;38.35;;;17.73;;
34805;SDS011;65084;42.196;25.326;2023-12-07T08:59:11;29.83;;;14.40;;
34805;SDS011;65084;42.196;25.326;2023-12-07T09:01:38;27.77;;;13.70;;
34805;SDS011;65084;42.196;25.326;2023-12-07T09:04:06;30.10;;;14.77;;
34805;SDS011;65084;42.196;25.326;2023-12-07T09:06:34;23.67;;;14.90;;
34805;SDS011;65084;42.196;25.326;2023-12-07T09:09:01;29.23;;;12.73;;
34805;SDS011;65084;42.196;25.326;2023-12-07T09:11:29;18.45;;;12.25;;
34805;SDS011;65084;42.196;25.326;2023-12-07T09:13:56;20.95;;;12.70;;
34805;SDS011;65084;42.196;25.326;2023-12-07T09:16:24;24.95;;;14.45;;
34805;SDS011;65084;42.196;25.326;2023-12-07T09:18:52;22.35;;;13.77;;
34805;SDS011;65084;42.196;25.326;2023-12-07T09:21:21;21.73;;;14.15;;
34805;SDS011;65084;42.196;25.326;2023-12-07T09:23:48;22.90;;;14.50;;
34805;SDS011;65084;42.196;25.326;2023-12-07T09:26:15;23.50;;;13.77;;
34805;SDS011;65084;42.196;25.326;2023-12-07T09:28:42;24.05;;;14.05;;
34805;SDS011;65084;42.196;25.326;2023-12-07T09:31:10;23.05;;;14.15;;
34805;SDS011;65084;42.196;25.326;2023-12-07T09:33:37;22.75;;;12.77;;
34805;SDS011;65084;42.196;25.326;2023-12-07T09:36:05;20.75;;;13.40;;
34805;SDS011;65084;42.196;25.326;2023-12-07T09:38:36;14.60;;;11.25;;
34805;SDS011;65084;42.196;25.326;2023-12-07T09:41:03;22.20;;;12.00;;
34805;SDS011;65084;42.196;25.326;2023-12-07T09:43:31;14.95;;;11.68;;
34805;SDS011;65084;42.196;25.326;2023-12-07T09:45:58;16.25;;;11.23;;
34805;SDS011;65084;42.196;25.326;2023-12-07T09:48:26;19.10;;;11.45;;
34805;SDS011;65084;42.196;25.326;2023-12-07T09:50:54;17.42;;;11.48;;
34805;SDS011;65084;42.196;25.326;2023-12-07T09:53:22;17.88;;;11.30;;
34805;SDS011;65084;42.196;25.326;2023-12-07T09:55:51;27.45;;;14.93;;
34805;SDS011;65084;42.196;25.326;2023-12-07T09:58:18;19.02;;;11.57;;
34805;SDS011;65084;42.196;25.326;2023-12-07T10:00:46;19.73;;;12.15;;
34805;SDS011;65084;42.196;25.326;2023-12-07T10:03:19;15.23;;;11.57;;
34805;SDS011;65084;42.196;25.326;2023-12-07T10:05:54;20.58;;;11.63;;
34805;SDS011;65084;42.196;25.326;2023-12-07T10:08:25;18.00;;;11.85;;
34805;SDS011;65084;42.196;25.326;2023-12-07T10:11:02;23.55;;;13.18;;
34805;SDS011;65084;42.196;25.326;2023-12-07T10:13:30;16.85;;;12.15;;
34805;SDS011;65084;42.196;25.326;2023-12-07T10:16:10;26.83;;;12.25;;
34805;SDS011;65084;42.196;25.326;2023-12-07T10:18:38;20.15;;;13.85;;
34805;SDS011;65084;42.196;25.326;2023-12-07T10:21:06;22.38;;;12.93;;
34805;SDS011;65084;42.196;25.326;2023-12-07T10:23:35;21.92;;;12.95;;
34805;SDS011;65084;42.196;25.326;2023-12-07T10:26:05;16.92;;;12.50;;
34805;SDS011;65084;42.196;25.326;2023-12-07T10:28:33;19.25;;;12.00;;
34805;SDS011;65084;42.196;25.326;2023-12-07T10:31:02;21.65;;;13.00;;
34805;SDS011;65084;42.196;25.326;2023-12-07T10:33:29;19.38;;;13.82;;
34805;SDS011;65084;42.196;25.326;2023-12-07T10:35:56;17.60;;;12.85;;
34805;SDS011;65084;42.196;25.326;2023-12-07T10:38:25;20.90;;;15.02;;
34805;SDS011;65084;42.196;25.326;2023-12-07T10:40:57;16.70;;;12.65;;
34805;SDS011;65084;42.196;25.326;2023-12-07T10:45:56;21.67;;;14.30;;
34805;SDS011;65084;42.196;25.326;2023-12-07T10:48:24;23.35;;;15.35;;
34805;SDS011;65084;42.196;25.326;2023-12-07T10:50:52;23.50;;;15.65;;
34805;SDS011;65084;42.196;25.326;2023-12-07T10:53:21;22.58;;;14.27;;
34805;SDS011;65084;42.196;25.326;2023-12-07T10:55:55;21.27;;;13.75;;
34805;SDS011;65084;42.196;25.326;2023-12-07T10:58:23;22.05;;;13.02;;
34805;SDS011;65084;42.196;25.326;2023-12-07T11:00:52;17.58;;;12.82;;
34805;SDS011;65084;42.196;25.326;2023-12-07T11:03:21;20.17;;;13.50;;
34805;SDS011;65084;42.196;25.326;2023-12-07T11:05:48;24.63;;;14.48;;
34805;SDS011;65084;42.196;25.326;2023-12-07T11:11:21;24.35;;;15.98;;
34805;SDS011;65084;42.196;25.326;2023-12-07T11:13:52;21.77;;;13.77;;
34805;SDS011;65084;42.196;25.326;2023-12-07T11:16:28;22.60;;;14.38;;
34805;SDS011;65084;42.196;25.326;2023-12-07T11:18:57;21.17;;;14.57;;
34805;SDS011;65084;42.196;25.326;2023-12-07T11:21:24;21.98;;;14.20;;
34805;SDS011;65084;42.196;25.326;2023-12-07T11:23:52;21.70;;;14.95;;
34805;SDS011;65084;42.196;25.326;2023-12-07T11:26:20;27.88;;;15.60;;
34805;SDS011;65084;42.196;25.326;2023-12-07T11:28:47;35.55;;;18.58;;
34805;SDS011;65084;42.196;25.326;2023-12-07T11:31:14;26.90;;;16.35;;
34805;SDS011;65084;42.196;25.326;2023-12-07T11:33:42;23.85;;;14.73;;
34805;SDS011;65084;42.196;25.326;2023-12-07T11:36:12;16.40;;;10.70;;
34805;SDS011;65084;42.196;25.326;2023-12-07T11:41:28;13.32;;;9.93;;
34805;SDS011;65084;42.196;25.326;2023-12-07T11:43:58;13.90;;;9.95;;
34805;SDS011;65084;42.196;25.326;2023-12-07T11:46:25;18.33;;;12.13;;
34805;SDS011;65084;42.196;25.326;2023-12-07T11:48:52;16.65;;;10.70;;
34805;SDS011;65084;42.196;25.326;2023-12-07T11:51:22;15.45;;;10.38;;
34805;SDS011;65084;42.196;25.326;2023-12-07T11:53:50;14.30;;;9.30;;
34805;SDS011;65084;42.196;25.326;2023-12-07T11:56:17;12.43;;;8.60;;
34805;SDS011;65084;42.196;25.326;2023-12-07T11:58:46;12.48;;;8.80;;
34805;SDS011;65084;42.196;25.326;2023-12-07T12:01:14;15.98;;;9.45;;
34805;SDS011;65084;42.196;25.326;2023-12-07T12:03:42;14.63;;;10.13;;
34805;SDS011;65084;42.196;25.326;2023-12-07T12:06:10;17.63;;;10.48;;
34805;SDS011;65084;42.196;25.326;2023-12-07T12:08:39;16.98;;;11.27;;
34805;SDS011;65084;42.196;25.326;2023-12-07T12:11:06;18.60;;;11.93;;
34805;SDS011;65084;42.196;25.326;2023-12-07T12:13:34;20.08;;;11.20;;
34805;SDS011;65084;42.196;25.326;2023-12-07T12:16:02;17.35;;;11.27;;
34805;SDS011;65084;42.196;25.326;2023-12-07T12:18:29;24.63;;;12.77;;
34805;SDS011;65084;42.196;25.326;2023-12-07T12:20:58;21.58;;;13.52;;
34805;SDS011;65084;42.196;25.326;2023-12-07T12:23:25;18.67;;;12.40;;
34805;SDS011;65084;42.196;25.326;2023-12-07T12:25:55;17.10;;;11.98;;
34805;SDS011;65084;42.196;25.326;2023-12-07T12:28:23;15.93;;;11.50;;
34805;SDS011;65084;42.196;25.326;2023-12-07T12:30:50;17.83;;;11.02;;
34805;SDS011;65084;42.196;25.326;2023-12-07T12:33:18;20.67;;;11.52;;
34805;SDS011;65084;42.196;25.326;2023-12-07T12:35:45;16.85;;;10.95;;
34805;SDS011;65084;42.196;25.326;2023-12-07T12:38:13;17.35;;;12.20;;
34805;SDS011;65084;42.196;25.326;2023-12-07T12:40:40;18.75;;;12.20;;
34805;SDS011;65084;42.196;25.326;2023-12-07T12:43:09;20.83;;;12.23;;
34805;SDS011;65084;42.196;25.326;2023-12-07T12:45:36;15.02;;;11.38;;
34805;SDS011;65084;42.196;25.326;2023-12-07T12:48:04;19.08;;;12.25;;
34805;SDS011;65084;42.196;25.326;2023-12-07T12:50:33;14.32;;;10.55;;
34805;SDS011;65084;42.196;25.326;2023-12-07T12:53:02;13.23;;;10.40;;
34805;SDS011;65084;42.196;25.326;2023-12-07T12:55:30;13.25;;;9.88;;
34805;SDS011;65084;42.196;25.326;2023-12-07T12:57:58;13.57;;;8.90;;
34805;SDS011;65084;42.196;25.326;2023-12-07T13:00:27;15.13;;;10.30;;
34805;SDS011;65084;42.196;25.326;2023-12-07T13:02:54;13.85;;;8.98;;
34805;SDS011;65084;42.196;25.326;2023-12-07T13:05:22;13.07;;;9.57;;
34805;SDS011;65084;42.196;25.326;2023-12-07T13:07:49;12.55;;;9.70;;
34805;SDS011;65084;42.196;25.326;2023-12-07T13:10:16;13.77;;;9.60;;
34805;SDS011;65084;42.196;25.326;2023-12-07T13:12:44;19.20;;;9.02;;
34805;SDS011;65084;42.196;25.326;2023-12-07T13:15:11;23.30;;;13.52;;
34805;SDS011;65084;42.196;25.326;2023-12-07T13:17:40;15.80;;;10.18;;
34805;SDS011;65084;42.196;25.326;2023-12-07T13:20:08;14.90;;;10.20;;
34805;SDS011;65084;42.196;25.326;2023-12-07T13:22:36;14.68;;;10.45;;
34805;SDS011;65084;42.196;25.326;2023-12-07T13:25:04;19.40;;;11.43;;
34805;SDS011;65084;42.196;25.326;2023-12-07T13:27:32;13.75;;;10.05;;
34805;SDS011;65084;42.196;25.326;2023-12-07T13:29:59;13.50;;;10.07;;
34805;SDS011;65084;42.196;25.326;2023-12-07T13:32:30;13.95;;;10.18;;
34805;SDS011;65084;42.196;25.326;2023-12-07T13:34:58;18.45;;;11.10;;
34805;SDS011;65084;42.196;25.326;2023-12-07T13:37:26;19.77;;;11.88;;
34805;SDS011;65084;42.196;25.326;2023-12-07T13:39:54;21.40;;;14.35;;
34805;SDS011;65084;42.196;25.326;2023-12-07T13:42:23;22.05;;;15.98;;
34805;SDS011;65084;42.196;25.326;2023-12-07T13:44:52;25.17;;;16.33;;
34805;SDS011;65084;42.196;25.326;2023-12-07T13:47:19;19.40;;;13.25;;
34805;SDS011;65084;42.196;25.326;2023-12-07T13:49:49;20.50;;;13.80;;
34805;SDS011;65084;42.196;25.326;2023-12-07T13:52:18;25.00;;;14.23;;
34805;SDS011;65084;42.196;25.326;2023-12-07T13:54:45;20.70;;;13.25;;
34805;SDS011;65084;42.196;25.326;2023-12-07T13:57:13;25.70;;;14.45;;
34805;SDS011;65084;42.196;25.326;2023-12-07T13:59:41;31.35;;;15.10;;
34805;SDS011;65084;42.196;25.326;2023-12-07T14:02:08;24.88;;;13.90;;
34805;SDS011;65084;42.196;25.326;2023-12-07T14:04:35;24.35;;;13.13;;
34805;SDS011;65084;42.196;25.326;2023-12-07T14:07:12;22.67;;;12.85;;
34805;SDS011;65084;42.196;25.326;2023-12-07T14:09:41;20.92;;;11.30;;
34805;SDS011;65084;42.196;25.326;2023-12-07T14:12:09;19.95;;;10.25;;
34805;SDS011;65084;42.196;25.326;2023-12-07T14:14:38;17.38;;;10.25;;
34805;SDS011;65084;42.196;25.326;2023-12-07T14:17:05;23.23;;;10.38;;
34805;SDS011;65084;42.196;25.326;2023-12-07T14:19:32;13.70;;;8.38;;
34805;SDS011;65084;42.196;25.326;2023-12-07T14:22:00;15.07;;;10.13;;